EW7173 Weather Reports


Display with metric or nautical units.
time (UTC)temp
F
wind
direction
speed
MPH
gust
MPH
rain 1hr
in
rain 24hr
in
rain mn
in
humidity
%
barometer
mb
20190922205132 82 270 0.0 0.0 0.00 0.00 0.00 46
20190922204231 83 247 0.0 0.0 0.00 0.00 0.00 46
20190922203330 83 247 0.0 0.0 0.00 0.00 0.00 46
20190922202340 84 346 2.0 0.0 0.00 0.00 0.00 46
20190922201434 84 292 0.0 0.0 0.00 0.00 0.00 45
20190922200531 84 337 0.0 0.0 0.00 0.00 0.00 43
20190922195541 85 270 0.0 0.0 0.00 0.00 0.00 41
20190922194539 87 273 1.0 0.0 0.00 0.00 0.00 38
20190922193546 90 247 0.0 0.0 0.00 0.00 0.00 37
20190922192632 91 261 1.0 0.0 0.00 0.00 0.00 36
20190922191645 91 247 1.0 0.0 0.00 0.00 0.00 36
20190922190736 91 274 2.0 0.0 0.00 0.00 0.00 36
20190922185742 91 188 0.0 0.0 0.00 0.00 0.00 34
20190922184842 92 240 0.0 0.0 0.00 0.00 0.00 34
20190922183841 91 336 1.0 0.0 0.00 0.00 0.00 35
20190922182926 91 257 1.0 0.0 0.00 0.00 0.00 34
20190922181939 91 247 0.0 0.0 0.00 0.00 0.00 35
20190922180943 89 292 0.0 0.0 0.00 0.00 0.00 35
20190922175940 90 270 0.0 0.0 0.00 0.00 0.00 34
20190922175031 89 315 0.0 0.0 0.00 0.00 0.00 34
20190922174131 88 292 0.0 0.0 0.00 0.00 0.00 34
20190922173136 85 314 0.0 0.0 0.00 0.00 0.00 36
20190922172234 84 270 0.0 0.0 0.00 0.00 0.00 36
20190922171245 83 337 0.0 0.0 0.00 0.00 0.00 37
20190922170333 83 248 1.0 0.0 0.00 0.00 0.00 37
20190922165337 83 295 2.0 0.0 0.00 0.00 0.00 36
20190922164431 82 284 2.0 0.0 0.00 0.00 0.00 38
20190922163441 82 313 1.0 0.0 0.00 0.00 0.00 41
20190922162537 82 292 0.0 0.0 0.00 0.00 0.00 42
20190922161547 81 292 0.0 0.0 0.00 0.00 0.00 42
20190922160643 83 247 0.0 0.0 0.00 0.00 0.00 42
20190922155641 85 112 1.0 0.0 0.00 0.00 0.00 39
20190922154732 86 67 0.0 0.0 0.00 0.00 0.00 38
20190922153830 87 192 2.0 0.0 0.00 0.00 0.00 40
20190922152845 86 200 1.0 0.0 0.00 0.00 0.00 42
20190922151844 86 292 0.0 0.0 0.00 0.00 0.00 45
20190922150831 85 253 1.0 0.0 0.00 0.00 0.00 49
20190922145839 84 112 0.0 0.0 0.00 0.00 0.00 54
20190922144840 81 67 0.0 0.0 0.00 0.00 0.00 59
20190922143831 76 337 0.0 0.0 0.00 0.00 0.00 68
20190922142930 71 202 0.0 0.0 0.00 0.00 0.00 77
20190922141942 68 202 0.0 0.0 0.00 0.00 0.00 84
20190922140944 66 247 0.0 0.0 0.00 0.00 0.00 91
20190922140044 63 247 0.0 0.0 0.00 0.00 0.00 94
20190922135041 62 337 0.0 0.0 0.00 0.00 0.00 96
20190922134036 60 337 0.0 0.0 0.00 0.00 0.00 97
20190922133130 58 337 0.0 0.0 0.00 0.00 0.00 96
20190922132141 58 337 0.0 0.0 0.00 0.00 0.00 97
20190922131233 57 337 0.0 0.0 0.00 0.00 0.00 97
20190922130232 56 337 0.0 0.0 0.00 0.00 0.00 97
20190922125329 55 337 0.0 0.0 0.00 0.00 0.00 97
20190922124430 54 337 0.0 0.0 0.00 0.00 0.00 97
20190922123442 52 337 0.0 0.0 0.00 0.00 0.00 97
20190922122531 51 337 0.0 0.0 0.00 0.00 0.00 96
20190922121629 50 337 0.0 0.0 0.00 0.00 0.00 96
20190922120643 50 337 0.0 0.0 0.00 0.00 0.00 96
20190922115708 50 337 0.0 0.0 0.00 0.00 0.00 96
20190922114803 49 337 0.0 0.0 0.00 0.00 0.00 96
20190922113900 49 337 0.0 0.0 0.00 0.00 0.00 96
20190922112927 49 337 0.0 0.0 0.00 0.00 0.00 96
20190922111951 49 337 0.0 0.0 0.00 0.00 0.00 96
20190922111014 49 337 0.0 0.0 0.00 0.00 0.00 96
20190922110039 49 337 0.0 0.0 0.00 0.00 0.00 96
20190922105106 49 337 0.0 0.0 0.00 0.00 0.00 96
20190922104205 50 337 0.0 0.0 0.00 0.00 0.00 96
20190922103259 50 337 0.0 0.0 0.00 0.00 0.00 96
20190922102351 50 337 0.0 0.0 0.00 0.00 0.00 96
20190922101413 51 337 0.0 0.0 0.00 0.00 0.00 95
20190922100448 51 337 0.0 0.0 0.00 0.00 0.00 95
20190922095542 51 337 0.0 0.0 0.00 0.00 0.00 95
20190922094640 51 337 0.0 0.0 0.00 0.00 0.00 95
20190922093734 52 337 0.0 0.0 0.00 0.00 0.00 95
20190922092735 52 337 0.0 0.0 0.00 0.00 0.00 95
20190922091832 53 337 0.0 0.0 0.00 0.00 0.00 95
20190922090928 53 337 0.0 0.0 0.00 0.00 0.00 95
20190922090022 53 337 0.0 0.0 0.00 0.00 0.00 95
20190922085117 53 337 0.0 0.0 0.00 0.00 0.00 95
20190922084147 54 337 0.0 0.0 0.00 0.00 0.00 95
20190922083229 54 337 0.0 0.0 0.00 0.00 0.00 95
20190922082154 54 337 0.0 0.0 0.00 0.00 0.00 95
20190922081207 54 337 0.0 0.0 0.00 0.00 0.00 95
20190922080241 54 337 0.0 0.0 0.00 0.00 0.00 95
20190922075310 54 337 0.0 0.0 0.00 0.00 0.00 95
20190922074335 54 337 0.0 0.0 0.00 0.00 0.00 95
20190922073417 54 337 0.0 0.0 0.00 0.00 0.00 95
20190922072455 55 337 0.0 0.0 0.00 0.00 0.00 95
20190922071505 54 337 0.0 0.0 0.00 0.00 0.00 94
20190922063439 55 337 0.0 0.0 0.00 0.00 0.00 95
20190922062538 55 337 0.0 0.0 0.00 0.00 0.00 95
20190922061550 55 337 0.0 0.0 0.00 0.00 0.00 95
20190922060541 55 337 0.0 0.0 0.00 0.00 0.00 95
20190922055532 55 337 0.0 0.0 0.00 0.00 0.00 95
20190922054547 56 337 0.0 0.0 0.00 0.00 0.00 94
20190922053640 56 337 0.0 0.0 0.00 0.00 0.00 94
20190922052730 56 337 0.0 0.0 0.00 0.00 0.00 94
20190922051831 56 337 0.0 0.0 0.00 0.00 0.00 94
20190922050842 56 337 0.0 0.0 0.00 0.00 0.00 94
20190922045842 57 337 0.0 0.0 0.00 0.00 0.00 94
20190922044939 57 337 0.0 0.0 0.00 0.00 0.00 94
20190922044032 57 337 0.0 0.0 0.00 0.00 0.00 94
20190922043130 57 337 0.0 0.0 0.00 0.00 0.00 94
20190922042229 58 337 0.0 0.0 0.00 0.00 0.00 94
20190922041244 58 337 0.0 0.0 0.00 0.00 0.00 94
20190922040238 58 337 0.0 0.0 0.00 0.00 0.00 94
20190922035320 58 337 0.0 0.0 0.00 0.00 0.00 93
20190922034325 59 337 0.0 0.0 0.00 0.00 0.00 93
20190922033424 59 337 0.0 0.0 0.00 0.00 0.00 93
20190922032521 59 337 0.0 0.0 0.00 0.00 0.00 93
20190922031527 58 337 0.0 0.0 0.00 0.00 0.00 92
20190922030525 59 337 0.0 0.0 0.00 0.00 0.00 92
20190922025521 60 337 0.0 0.0 0.00 0.00 0.00 92
20190922024529 60 337 0.0 0.0 0.00 0.00 0.00 92
20190922023523 60 337 0.0 0.0 0.00 0.00 0.00 92
20190922022529 61 337 0.0 0.0 0.00 0.00 0.00 91
20190922021529 61 337 0.0 0.0 0.00 0.00 0.00 91
20190922020625 61 337 0.0 0.0 0.00 0.00 0.00 91
20190922015626 62 337 0.0 0.0 0.00 0.00 0.00 91
20190922014721 62 337 0.0 0.0 0.00 0.00 0.00 91
20190922013722 62 337 0.0 0.0 0.00 0.00 0.00 90
20190922012820 63 337 0.0 0.0 0.00 0.00 0.00 90
20190922011828 63 337 0.0 0.0 0.00 0.00 0.00 89
20190922010829 64 337 0.0 0.0 0.00 0.00 0.00 88
20190922005924 64 337 0.0 0.0 0.00 0.00 0.00 88
20190922005021 64 337 0.0 0.0 0.00 0.00 0.00 87
20190922004026 65 337 0.0 0.0 0.00 0.00 0.00 86
20190922003029 65 337 0.0 0.0 0.00 0.00 0.00 85
20190922002023 66 337 0.0 0.0 0.00 0.00 0.00 85
20190922001028 67 337 0.0 0.0 0.00 0.00 0.00 85
20190922000026 67 337 0.0 0.0 0.00 0.00 0.00 82
20190921235027 68 337 0.0 0.0 0.00 0.00 0.00 82
20190921234022 69 337 0.0 0.0 0.00 0.00 0.00 82
20190921233028 69 337 0.0 0.0 0.00 0.00 0.00 80
20190921232026 70 337 0.0 0.0 0.00 0.00 0.00 75
20190921231026 71 337 0.0 0.0 0.00 0.00 0.00 77
20190921230023 72 337 0.0 0.0 0.00 0.00 0.00 76
20190921225027 73 337 0.0 0.0 0.00 0.00 0.00 72
20190921224122 74 337 0.0 0.0 0.00 0.00 0.00 70
20190921223220 75 337 0.0 0.0 0.00 0.00 0.00 68
20190921222220 76 337 0.0 0.0 0.00 0.00 0.00 64
20190921221221 77 337 0.0 0.0 0.00 0.00 0.00 61
20190921220321 78 337 0.0 0.0 0.00 0.00 0.00 60
20190921215326 79 337 0.0 0.0 0.00 0.00 0.00 58
20190921214332 79 337 0.0 0.0 0.00 0.00 0.00 58
20190921213421 80 337 0.0 0.0 0.00 0.00 0.00 57
20190921212520 80 337 0.0 0.0 0.00 0.00 0.00 56
20190921211529 81 337 0.0 0.0 0.00 0.00 0.00 55
20190921210524 81 337 0.0 0.0 0.00 0.00 0.00 54
20190921205623 81 67 0.0 0.0 0.00 0.00 0.00 53